sensor_id;sensor_type;location;lat;lon;timestamp;pressure;altitude;pressure_sealevel;temperature;humidity
68948;BME280;55996;49.546;7.400;2024-02-14T00:00:12;98915.75;;;5.00;100.00
68948;BME280;55996;49.546;7.400;2024-02-14T00:02:43;98909.69;;;5.03;100.00
68948;BME280;55996;49.546;7.400;2024-02-14T00:05:08;98901.09;;;4.97;100.00
68948;BME280;55996;49.546;7.400;2024-02-14T00:07:39;98907.09;;;5.01;100.00
68948;BME280;55996;49.546;7.400;2024-02-14T00:10:07;98898.53;;;4.90;100.00
68948;BME280;55996;49.546;7.400;2024-02-14T00:12:33;98909.78;;;4.90;100.00
68948;BME280;55996;49.546;7.400;2024-02-14T00:14:59;98893.41;;;4.83;100.00
68948;BME280;55996;49.546;7.400;2024-02-14T00:17:24;98917.56;;;4.82;100.00
68948;BME280;55996;49.546;7.400;2024-02-14T00:19:50;98882.31;;;4.60;100.00
68948;BME280;55996;49.546;7.400;2024-02-14T00:22:16;98899.53;;;4.72;100.00
68948;BME280;55996;49.546;7.400;2024-02-14T00:24:41;98897.84;;;4.60;100.00
68948;BME280;55996;49.546;7.400;2024-02-14T00:27:07;98895.25;;;4.61;100.00
68948;BME280;55996;49.546;7.400;2024-02-14T00:29:32;98894.50;;;4.44;100.00
68948;BME280;55996;49.546;7.400;2024-02-14T00:32:00;98890.22;;;4.30;100.00
68948;BME280;55996;49.546;7.400;2024-02-14T00:34:25;98881.69;;;4.20;100.00
68948;BME280;55996;49.546;7.400;2024-02-14T00:36:51;98903.16;;;4.35;100.00
68948;BME280;55996;49.546;7.400;2024-02-14T00:39:16;98892.00;;;4.19;100.00
68948;BME280;55996;49.546;7.400;2024-02-14T00:41:41;98895.50;;;4.09;100.00
68948;BME280;55996;49.546;7.400;2024-02-14T00:44:07;98896.38;;;4.08;100.00
68948;BME280;55996;49.546;7.400;2024-02-14T00:46:32;98898.09;;;4.04;100.00
68948;BME280;55996;49.546;7.400;2024-02-14T00:48:57;98884.34;;;3.94;100.00
68948;BME280;55996;49.546;7.400;2024-02-14T00:51:23;98883.47;;;3.94;100.00
68948;BME280;55996;49.546;7.400;2024-02-14T00:53:48;98903.25;;;4.12;100.00
68948;BME280;55996;49.546;7.400;2024-02-14T00:56:14;98893.81;;;4.00;100.00
68948;BME280;55996;49.546;7.400;2024-02-14T00:58:39;98895.53;;;3.98;100.00
68948;BME280;55996;49.546;7.400;2024-02-14T01:01:04;98887.78;;;3.98;100.00
68948;BME280;55996;49.546;7.400;2024-02-14T01:03:30;98899.81;;;4.11;100.00
68948;BME280;55996;49.546;7.400;2024-02-14T01:05:56;98882.59;;;4.07;100.00
68948;BME280;55996;49.546;7.400;2024-02-14T01:08:21;98894.59;;;4.19;100.00
68948;BME280;55996;49.546;7.400;2024-02-14T01:10:47;98904.06;;;4.29;100.00
68948;BME280;55996;49.546;7.400;2024-02-14T01:13:14;98880.78;;;4.20;100.00
68948;BME280;55996;49.546;7.400;2024-02-14T01:15:40;98900.53;;;4.43;100.00
68948;BME280;55996;49.546;7.400;2024-02-14T01:18:06;98894.44;;;4.56;100.00
68948;BME280;55996;49.546;7.400;2024-02-14T01:20:32;98878.91;;;4.58;100.00
68948;BME280;55996;49.546;7.400;2024-02-14T01:22:57;98874.53;;;4.69;100.00
68948;BME280;55996;49.546;7.400;2024-02-14T01:25:22;98885.66;;;4.77;100.00
68948;BME280;55996;49.546;7.400;2024-02-14T01:27:48;98887.25;;;5.01;100.00
68948;BME280;55996;49.546;7.400;2024-02-14T01:30:14;98878.56;;;5.09;100.00
68948;BME280;55996;49.546;7.400;2024-02-14T01:32:40;98875.81;;;5.26;100.00
68948;BME280;55996;49.546;7.400;2024-02-14T01:35:05;98880.13;;;5.25;100.00
68948;BME280;55996;49.546;7.400;2024-02-14T01:37:31;98851.66;;;5.21;100.00
68948;BME280;55996;49.546;7.400;2024-02-14T01:39:56;98854.25;;;5.22;100.00
68948;BME280;55996;49.546;7.400;2024-02-14T01:42:21;98857.66;;;5.29;100.00
68948;BME280;55996;49.546;7.400;2024-02-14T01:44:47;98860.97;;;5.45;100.00
68948;BME280;55996;49.546;7.400;2024-02-14T01:47:13;98858.34;;;5.49;100.00
68948;BME280;55996;49.546;7.400;2024-02-14T01:49:39;98848.84;;;5.48;100.00
68948;BME280;55996;49.546;7.400;2024-02-14T01:52:05;98851.41;;;5.47;100.00
68948;BME280;55996;49.546;7.400;2024-02-14T01:54:31;98837.59;;;5.49;100.00
68948;BME280;55996;49.546;7.400;2024-02-14T01:56:57;98856.31;;;5.76;100.00
68948;BME280;55996;49.546;7.400;2024-02-14T01:59:24;98857.06;;;5.88;100.00
68948;BME280;55996;49.546;7.400;2024-02-14T02:01:50;98858.88;;;5.79;100.00
68948;BME280;55996;49.546;7.400;2024-02-14T02:04:17;98843.44;;;5.69;100.00
68948;BME280;55996;49.546;7.400;2024-02-14T02:06:43;98829.69;;;5.60;100.00
68948;BME280;55996;49.546;7.400;2024-02-14T02:09:09;98840.78;;;5.72;100.00
68948;BME280;55996;49.546;7.400;2024-02-14T02:11:51;98851.94;;;5.83;100.00
68948;BME280;55996;49.546;7.400;2024-02-14T02:14:16;98835.53;;;5.78;100.00
68948;BME280;55996;49.546;7.400;2024-02-14T02:16:42;98848.53;;;5.76;100.00
68948;BME280;55996;49.546;7.400;2024-02-14T02:19:09;98842.44;;;5.79;100.00
68948;BME280;55996;49.546;7.400;2024-02-14T02:21:38;98852.72;;;5.90;100.00
68948;BME280;55996;49.546;7.400;2024-02-14T02:24:03;98852.75;;;5.87;100.00
68948;BME280;55996;49.546;7.400;2024-02-14T02:26:29;98844.19;;;5.78;100.00
68948;BME280;55996;49.546;7.400;2024-02-14T02:28:54;98846.72;;;5.85;100.00
68948;BME280;55996;49.546;7.400;2024-02-14T02:31:20;98847.59;;;5.84;100.00
68948;BME280;55996;49.546;7.400;2024-02-14T02:33:46;98853.66;;;5.82;100.00
68948;BME280;55996;49.546;7.400;2024-02-14T02:36:11;98863.16;;;5.84;100.00
68948;BME280;55996;49.546;7.400;2024-02-14T02:38:37;98858.78;;;5.87;100.00
68948;BME280;55996;49.546;7.400;2024-02-14T02:41:03;98857.13;;;5.83;100.00
68948;BME280;55996;49.546;7.400;2024-02-14T02:43:34;98869.13;;;5.90;100.00
68948;BME280;55996;49.546;7.400;2024-02-14T02:46:00;98859.72;;;5.80;100.00
68948;BME280;55996;49.546;7.400;2024-02-14T02:48:25;98842.44;;;5.80;100.00
68948;BME280;55996;49.546;7.400;2024-02-14T02:50:51;98864.78;;;5.92;100.00
68948;BME280;55996;49.546;7.400;2024-02-14T02:53:17;98857.94;;;5.87;100.00
68948;BME280;55996;49.546;7.400;2024-02-14T02:55:42;98855.28;;;5.93;100.00
68948;BME280;55996;49.546;7.400;2024-02-14T02:58:08;98843.19;;;5.90;100.00
68948;BME280;55996;49.546;7.400;2024-02-14T03:00:33;98858.63;;;6.03;100.00
68948;BME280;55996;49.546;7.400;2024-02-14T03:02:59;98847.53;;;5.90;100.00
68948;BME280;55996;49.546;7.400;2024-02-14T03:05:25;98838.88;;;5.91;100.00
68948;BME280;55996;49.546;7.400;2024-02-14T03:07:50;98856.88;;;6.06;100.00
68948;BME280;55996;49.546;7.400;2024-02-14T03:10:17;98853.44;;;6.06;100.00
68948;BME280;55996;49.546;7.400;2024-02-14T03:12:47;98861.16;;;6.10;100.00
68948;BME280;55996;49.546;7.400;2024-02-14T03:15:13;98843.88;;;6.06;100.00
68948;BME280;55996;49.546;7.400;2024-02-14T03:17:39;98827.53;;;5.96;100.00
68948;BME280;55996;49.546;7.400;2024-02-14T03:20:05;98844.75;;;6.05;100.00
68948;BME280;55996;49.546;7.400;2024-02-14T03:22:40;98845.53;;;6.13;100.00
68948;BME280;55996;49.546;7.400;2024-02-14T03:25:16;98845.53;;;6.13;100.00
68948;BME280;55996;49.546;7.400;2024-02-14T03:27:42;98850.66;;;6.20;100.00
68948;BME280;55996;49.546;7.400;2024-02-14T03:30:11;98842.06;;;6.14;100.00
68948;BME280;55996;49.546;7.400;2024-02-14T03:32:38;98870.59;;;6.16;100.00
68948;BME280;55996;49.546;7.400;2024-02-14T03:35:03;98861.91;;;6.19;100.00
68948;BME280;55996;49.546;7.400;2024-02-14T03:37:29;98851.50;;;6.22;100.00
68948;BME280;55996;49.546;7.400;2024-02-14T03:39:54;98861.09;;;6.17;100.00
68948;BME280;55996;49.546;7.400;2024-02-14T03:42:20;98868.03;;;6.14;100.00
68948;BME280;55996;49.546;7.400;2024-02-14T03:44:45;98850.63;;;6.23;100.00
68948;BME280;55996;49.546;7.400;2024-02-14T03:47:12;98880.81;;;6.30;100.00
68948;BME280;55996;49.546;7.400;2024-02-14T03:49:38;98867.06;;;6.22;100.00
68948;BME280;55996;49.546;7.400;2024-02-14T03:52:06;98848.22;;;6.07;100.00
68948;BME280;55996;49.546;7.400;2024-02-14T03:54:35;98887.03;;;6.18;100.00
68948;BME280;55996;49.546;7.400;2024-02-14T03:57:01;98881.84;;;6.17;100.00
68948;BME280;55996;49.546;7.400;2024-02-14T03:59:27;98893.00;;;6.26;100.00
68948;BME280;55996;49.546;7.400;2024-02-14T04:01:52;98890.38;;;6.28;100.00
68948;BME280;55996;49.546;7.400;2024-02-14T04:04:18;98893.13;;;6.16;100.00
68948;BME280;55996;49.546;7.400;2024-02-14T04:06:43;98891.38;;;6.14;100.00
68948;BME280;55996;49.546;7.400;2024-02-14T04:09:10;98886.16;;;6.19;100.00
68948;BME280;55996;49.546;7.400;2024-02-14T04:11:35;98887.91;;;6.17;100.00
68948;BME280;55996;49.546;7.400;2024-02-14T04:14:01;98900.81;;;6.22;100.00
68948;BME280;55996;49.546;7.400;2024-02-14T04:16:26;98893.00;;;6.25;100.00
68948;BME280;55996;49.546;7.400;2024-02-14T04:18:52;98884.53;;;6.10;100.00
68948;BME280;55996;49.546;7.400;2024-02-14T04:21:19;98901.56;;;6.30;100.00
68948;BME280;55996;49.546;7.400;2024-02-14T04:23:45;98882.75;;;6.14;100.00
68948;BME280;55996;49.546;7.400;2024-02-14T04:26:18;98887.03;;;6.17;100.00
68948;BME280;55996;49.546;7.400;2024-02-14T04:28:44;98887.03;;;6.17;100.00
68948;BME280;55996;49.546;7.400;2024-02-14T04:31:09;98870.66;;;6.11;100.00
68948;BME280;55996;49.546;7.400;2024-02-14T04:33:35;98872.16;;;6.29;100.00
68948;BME280;55996;49.546;7.400;2024-02-14T04:36:00;98892.88;;;6.34;100.00
68948;BME280;55996;49.546;7.400;2024-02-14T04:38:26;98905.81;;;6.37;100.00
68948;BME280;55996;49.546;7.400;2024-02-14T04:40:51;98896.38;;;6.32;100.00
68948;BME280;55996;49.546;7.400;2024-02-14T04:43:17;98894.59;;;6.34;100.00
68948;BME280;55996;49.546;7.400;2024-02-14T04:45:43;98881.66;;;6.32;100.00
68948;BME280;55996;49.546;7.400;2024-02-14T04:48:08;98902.34;;;6.38;100.00
68948;BME280;55996;49.546;7.400;2024-02-14T04:50:34;98893.81;;;6.28;100.00
68948;BME280;55996;49.546;7.400;2024-02-14T04:52:59;98892.84;;;6.37;100.00
68948;BME280;55996;49.546;7.400;2024-02-14T04:55:24;98898.94;;;6.33;100.00
68948;BME280;55996;49.546;7.400;2024-02-14T04:57:50;98905.97;;;6.26;100.00
68948;BME280;55996;49.546;7.400;2024-02-14T05:00:15;98902.44;;;6.32;100.00
68948;BME280;55996;49.546;7.400;2024-02-14T05:02:41;98897.34;;;6.23;100.00
68948;BME280;55996;49.546;7.400;2024-02-14T05:05:06;98903.44;;;6.19;100.00
68948;BME280;55996;49.546;7.400;2024-02-14T05:07:33;98886.16;;;6.16;100.00
68948;BME280;55996;49.546;7.400;2024-02-14T05:09:59;98910.34;;;6.21;100.00
68948;BME280;55996;49.546;7.400;2024-02-14T05:12:24;98906.03;;;6.22;100.00
68948;BME280;55996;49.546;7.400;2024-02-14T05:14:50;98907.03;;;6.08;100.00
68948;BME280;55996;49.546;7.400;2024-02-14T05:17:15;98904.25;;;6.25;100.00
68948;BME280;55996;49.546;7.400;2024-02-14T05:19:44;98895.72;;;6.16;100.00
68948;BME280;55996;49.546;7.400;2024-02-14T05:22:09;98916.34;;;6.28;100.00
68948;BME280;55996;49.546;7.400;2024-02-14T05:24:34;98899.03;;;6.27;100.00
68948;BME280;55996;49.546;7.400;2024-02-14T05:27:03;98911.09;;;6.33;100.00
68948;BME280;55996;49.546;7.400;2024-02-14T05:29:29;98905.22;;;6.15;100.00
68948;BME280;55996;49.546;7.400;2024-02-14T05:31:54;98914.56;;;6.30;100.00
68948;BME280;55996;49.546;7.400;2024-02-14T05:34:20;98915.47;;;6.26;100.00
68948;BME280;55996;49.546;7.400;2024-02-14T05:36:46;98910.13;;;6.38;100.00
68948;BME280;55996;49.546;7.400;2024-02-14T05:39:11;98894.69;;;6.27;100.00
68948;BME280;55996;49.546;7.400;2024-02-14T05:41:37;98899.06;;;6.25;100.00
68948;BME280;55996;49.546;7.400;2024-02-14T05:44:02;98920.56;;;6.34;100.00
68948;BME280;55996;49.546;7.400;2024-02-14T05:46:28;98919.88;;;6.21;100.00
68948;BME280;55996;49.546;7.400;2024-02-14T05:48:53;98924.22;;;6.17;100.00
68948;BME280;55996;49.546;7.400;2024-02-14T05:51:19;98904.38;;;6.14;100.00
68948;BME280;55996;49.546;7.400;2024-02-14T05:53:45;98907.75;;;6.20;100.00
68948;BME280;55996;49.546;7.400;2024-02-14T05:56:10;98914.53;;;6.33;100.00
68948;BME280;55996;49.546;7.400;2024-02-14T05:58:36;98937.81;;;6.41;100.00
68948;BME280;55996;49.546;7.400;2024-02-14T06:01:01;98909.34;;;6.33;100.00
68948;BME280;55996;49.546;7.400;2024-02-14T06:03:26;98913.63;;;6.36;100.00
68948;BME280;55996;49.546;7.400;2024-02-14T06:05:52;98915.41;;;6.32;100.00
68948;BME280;55996;49.546;7.400;2024-02-14T06:08:18;98895.63;;;6.22;100.00
68948;BME280;55996;49.546;7.400;2024-02-14T06:10:43;98903.16;;;6.42;100.00
68948;BME280;55996;49.546;7.400;2024-02-14T06:13:09;98915.25;;;6.44;100.00
68948;BME280;55996;49.546;7.400;2024-02-14T06:15:34;98904.00;;;6.45;100.00
68948;BME280;55996;49.546;7.400;2024-02-14T06:18:00;98910.88;;;6.48;100.00
68948;BME280;55996;49.546;7.400;2024-02-14T06:20:26;98923.09;;;6.41;100.00
68948;BME280;55996;49.546;7.400;2024-02-14T06:22:51;98933.28;;;6.57;100.00
68948;BME280;55996;49.546;7.400;2024-02-14T06:25:16;98917.16;;;6.32;100.00
68948;BME280;55996;49.546;7.400;2024-02-14T06:27:42;98916.41;;;6.22;100.00
68948;BME280;55996;49.546;7.400;2024-02-14T06:30:08;98934.34;;;6.40;100.00
68948;BME280;55996;49.546;7.400;2024-02-14T06:32:33;98929.25;;;6.33;100.00
68948;BME280;55996;49.546;7.400;2024-02-14T06:34:58;98918.22;;;6.13;100.00
68948;BME280;55996;49.546;7.400;2024-02-14T06:37:24;98937.09;;;6.28;100.00
68948;BME280;55996;49.546;7.400;2024-02-14T06:39:49;98951.69;;;6.38;100.00
68948;BME280;55996;49.546;7.400;2024-02-14T06:42:16;98929.25;;;6.33;100.00
68948;BME280;55996;49.546;7.400;2024-02-14T06:44:41;98925.97;;;6.18;100.00
68948;BME280;55996;49.546;7.400;2024-02-14T06:47:06;98917.31;;;6.19;100.00
68948;BME280;55996;49.546;7.400;2024-02-14T06:49:32;98944.78;;;6.39;100.00
68948;BME280;55996;49.546;7.400;2024-02-14T06:51:57;98939.59;;;6.36;100.00
68948;BME280;55996;49.546;7.400;2024-02-14T06:54:23;98945.59;;;6.41;100.00
68948;BME280;55996;49.546;7.400;2024-02-14T06:56:48;98950.75;;;6.45;100.00
68948;BME280;55996;49.546;7.400;2024-02-14T06:59:13;98941.25;;;6.43;100.00
68948;BME280;55996;49.546;7.400;2024-02-14T07:01:39;98963.66;;;6.52;100.00
68948;BME280;55996;49.546;7.400;2024-02-14T07:04:04;98957.63;;;6.48;100.00
68948;BME280;55996;49.546;7.400;2024-02-14T07:06:30;98949.91;;;6.45;100.00
68948;BME280;55996;49.546;7.400;2024-02-14T07:08:56;98965.41;;;6.50;100.00
68948;BME280;55996;49.546;7.400;2024-02-14T07:11:21;98970.53;;;6.54;100.00
68948;BME280;55996;49.546;7.400;2024-02-14T07:13:47;98948.13;;;6.47;100.00
68948;BME280;55996;49.546;7.400;2024-02-14T07:16:12;98970.50;;;6.59;100.00
68948;BME280;55996;49.546;7.400;2024-02-14T07:18:37;98979.09;;;6.64;100.00
68948;BME280;55996;49.546;7.400;2024-02-14T07:21:03;98971.31;;;6.62;100.00
68948;BME280;55996;49.546;7.400;2024-02-14T07:23:29;98968.75;;;6.59;100.00
68948;BME280;55996;49.546;7.400;2024-02-14T07:25:54;98979.13;;;6.62;100.00
68948;BME280;55996;49.546;7.400;2024-02-14T07:28:20;98964.44;;;6.60;100.00
68948;BME280;55996;49.546;7.400;2024-02-14T07:30:45;98959.97;;;6.68;100.00
68948;BME280;55996;49.546;7.400;2024-02-14T07:33:10;98979.03;;;6.69;100.00
68948;BME280;55996;49.546;7.400;2024-02-14T07:35:39;98979.72;;;6.82;100.00
68948;BME280;55996;49.546;7.400;2024-02-14T07:38:04;98972.88;;;6.77;100.00
68948;BME280;55996;49.546;7.400;2024-02-14T07:40:30;98966.88;;;6.71;100.00
68948;BME280;55996;49.546;7.400;2024-02-14T07:42:58;98957.19;;;6.84;100.00
68948;BME280;55996;49.546;7.400;2024-02-14T07:45:24;98969.22;;;6.89;100.00
68948;BME280;55996;49.546;7.400;2024-02-14T07:47:50;98968.47;;;6.83;100.00
68948;BME280;55996;49.546;7.400;2024-02-14T07:50:15;98977.84;;;6.93;100.00
68948;BME280;55996;49.546;7.400;2024-02-14T07:52:44;98964.84;;;6.93;100.00
68948;BME280;55996;49.546;7.400;2024-02-14T07:55:10;98996.81;;;7.01;100.00
68948;BME280;55996;49.546;7.400;2024-02-14T07:57:38;99001.13;;;7.02;100.00
68948;BME280;55996;49.546;7.400;2024-02-14T08:00:05;98995.94;;;7.01;100.00
68948;BME280;55996;49.546;7.400;2024-02-14T08:02:33;98994.13;;;7.07;100.00
68948;BME280;55996;49.546;7.400;2024-02-14T08:04:59;98997.56;;;7.09;100.00
68948;BME280;55996;49.546;7.400;2024-02-14T08:07:24;98988.06;;;7.05;100.00
68948;BME280;55996;49.546;7.400;2024-02-14T08:09:49;99007.06;;;7.10;100.00
68948;BME280;55996;49.546;7.400;2024-02-14T08:12:15;99003.56;;;7.15;100.00
68948;BME280;55996;49.546;7.400;2024-02-14T08:14:40;99001.84;;;7.10;100.00
68948;BME280;55996;49.546;7.400;2024-02-14T08:17:05;99003.56;;;7.15;100.00
68948;BME280;55996;49.546;7.400;2024-02-14T08:19:31;98990.50;;;7.18;100.00
68948;BME280;55996;49.546;7.400;2024-02-14T08:21:57;98988.88;;;7.10;100.00
68948;BME280;55996;49.546;7.400;2024-02-14T08:24:27;98987.81;;;7.24;100.00
68948;BME280;55996;49.546;7.400;2024-02-14T08:26:53;98990.53;;;7.16;100.00
68948;BME280;55996;49.546;7.400;2024-02-14T08:29:19;98994.78;;;7.22;100.00
68948;BME280;55996;49.546;7.400;2024-02-14T08:31:46;98998.19;;;7.25;100.00
68948;BME280;55996;49.546;7.400;2024-02-14T08:34:11;98980.06;;;7.21;100.00
68948;BME280;55996;49.546;7.400;2024-02-14T08:36:37;99006.00;;;7.24;100.00
68948;BME280;55996;49.546;7.400;2024-02-14T08:39:10;98994.63;;;7.33;100.00
68948;BME280;55996;49.546;7.400;2024-02-14T08:41:39;98996.41;;;7.31;100.00
68948;BME280;55996;49.546;7.400;2024-02-14T08:44:06;98996.28;;;7.38;100.00
68948;BME280;55996;49.546;7.400;2024-02-14T08:46:32;98998.88;;;7.38;100.00
68948;BME280;55996;49.546;7.400;2024-02-14T08:48:59;99014.47;;;7.38;100.00
68948;BME280;55996;49.546;7.400;2024-02-14T08:51:24;98994.47;;;7.43;100.00
68948;BME280;55996;49.546;7.400;2024-02-14T08:53:52;98989.25;;;7.43;100.00
68948;BME280;55996;49.546;7.400;2024-02-14T08:56:24;98987.47;;;7.47;100.00
68948;BME280;55996;49.546;7.400;2024-02-14T08:58:49;99004.91;;;7.40;100.00
68948;BME280;55996;49.546;7.400;2024-02-14T09:01:15;99005.00;;;7.33;100.00
68948;BME280;55996;49.546;7.400;2024-02-14T09:03:44;99004.03;;;7.40;100.00
68948;BME280;55996;49.546;7.400;2024-02-14T09:06:13;99009.25;;;7.40;100.00
68948;BME280;55996;49.546;7.400;2024-02-14T09:08:39;98992.13;;;7.25;100.00
68948;BME280;55996;49.546;7.400;2024-02-14T09:11:05;98996.38;;;7.32;100.00
68948;BME280;55996;49.546;7.400;2024-02-14T09:13:31;98983.13;;;7.49;100.00
68948;BME280;55996;49.546;7.400;2024-02-14T09:15:56;98991.81;;;7.45;100.00
68948;BME280;55996;49.546;7.400;2024-02-14T09:18:21;99010.84;;;7.49;100.00
68948;BME280;55996;49.546;7.400;2024-02-14T09:20:47;98990.09;;;7.44;100.00
68948;BME280;55996;49.546;7.400;2024-02-14T09:23:13;99001.06;;;7.65;100.00
68948;BME280;55996;49.546;7.400;2024-02-14T09:25:46;98992.50;;;7.58;100.00
68948;BME280;55996;49.546;7.400;2024-02-14T09:28:12;99004.63;;;7.59;100.00
68948;BME280;55996;49.546;7.400;2024-02-14T09:30:39;99013.31;;;7.58;100.00
68948;BME280;55996;49.546;7.400;2024-02-14T09:33:04;99001.13;;;7.60;100.00
68948;BME280;55996;49.546;7.400;2024-02-14T09:35:30;99027.75;;;7.78;100.00
68948;BME280;55996;49.546;7.400;2024-02-14T09:37:55;99017.44;;;7.71;100.00
68948;BME280;55996;49.546;7.400;2024-02-14T09:40:21;99020.00;;;7.74;100.00
68948;BME280;55996;49.546;7.400;2024-02-14T09:42:56;99012.81;;;7.89;100.00
68948;BME280;55996;49.546;7.400;2024-02-14T09:45:25;99030.41;;;7.74;100.00
68948;BME280;55996;49.546;7.400;2024-02-14T09:47:52;99025.34;;;7.65;100.00
68948;BME280;55996;49.546;7.400;2024-02-14T09:50:18;99022.56;;;7.76;100.00
68948;BME280;55996;49.546;7.400;2024-02-14T09:52:47;99034.75;;;7.74;100.00
68948;BME280;55996;49.546;7.400;2024-02-14T09:55:14;99004.41;;;7.73;100.00
68948;BME280;55996;49.546;7.400;2024-02-14T09:57:41;99024.13;;;7.88;100.00
68948;BME280;55996;49.546;7.400;2024-02-14T10:00:09;99021.56;;;7.86;100.00
68948;BME280;55996;49.546;7.400;2024-02-14T10:02:35;99029.31;;;7.88;100.00
68948;BME280;55996;49.546;7.400;2024-02-14T10:05:01;99033.66;;;7.89;100.00
68948;BME280;55996;49.546;7.400;2024-02-14T10:07:26;99044.53;;;8.13;100.00
68948;BME280;55996;49.546;7.400;2024-02-14T10:09:52;99026.19;;;8.19;100.00
68948;BME280;55996;49.546;7.400;2024-02-14T10:12:19;99034.19;;;8.08;100.00
68948;BME280;55996;49.546;7.400;2024-02-14T10:14:47;99040.13;;;8.15;100.00
68948;BME280;55996;49.546;7.400;2024-02-14T10:17:19;99052.25;;;8.19;100.00
68948;BME280;55996;49.546;7.400;2024-02-14T10:19:55;99065.97;;;8.27;100.00
68948;BME280;55996;49.546;7.400;2024-02-14T10:22:21;99046.94;;;8.23;100.00
68948;BME280;55996;49.546;7.400;2024-02-14T10:24:46;99035.78;;;8.17;100.00
68948;BME280;55996;49.546;7.400;2024-02-14T10:27:12;99048.56;;;8.29;100.00
68948;BME280;55996;49.546;7.400;2024-02-14T10:29:38;99045.09;;;8.30;100.00
68948;BME280;55996;49.546;7.400;2024-02-14T10:32:03;99062.22;;;8.44;100.00
68948;BME280;55996;49.546;7.400;2024-02-14T10:34:30;99042.31;;;8.41;100.00
68948;BME280;55996;49.546;7.400;2024-02-14T10:36:56;99050.94;;;8.43;100.00
68948;BME280;55996;49.546;7.400;2024-02-14T10:39:25;99071.56;;;8.55;100.00
68948;BME280;55996;49.546;7.400;2024-02-14T10:41:51;99049.31;;;8.37;100.00
68948;BME280;55996;49.546;7.400;2024-02-14T10:44:16;99065.72;;;8.43;100.00
68948;BME280;55996;49.546;7.400;2024-02-14T10:46:44;99065.84;;;8.35;100.00
68948;BME280;55996;49.546;7.400;2024-02-14T10:49:10;99065.47;;;8.56;100.00
68948;BME280;55996;49.546;7.400;2024-02-14T10:51:38;99050.00;;;8.49;100.00
68948;BME280;55996;49.546;7.400;2024-02-14T10:54:11;99068.28;;;8.44;100.00
68948;BME280;55996;49.546;7.400;2024-02-14T10:56:41;99056.13;;;8.45;100.00
68948;BME280;55996;49.546;7.400;2024-02-14T10:59:11;99053.53;;;8.45;100.00
68948;BME280;55996;49.546;7.400;2024-02-14T11:01:39;99063.75;;;8.57;100.00
68948;BME280;55996;49.546;7.400;2024-02-14T11:04:06;99052.41;;;8.58;100.00
68948;BME280;55996;49.546;7.400;2024-02-14T11:06:32;99058.59;;;8.54;100.00
68948;BME280;55996;49.546;7.400;2024-02-14T11:09:03;99047.31;;;8.52;100.00
68948;BME280;55996;49.546;7.400;2024-02-14T11:11:33;99065.16;;;8.74;100.00
68948;BME280;55996;49.546;7.400;2024-02-14T11:13:59;99060.78;;;8.74;100.00
68948;BME280;55996;49.546;7.400;2024-02-14T11:16:25;99061.69;;;8.73;100.00
68948;BME280;55996;49.546;7.400;2024-02-14T11:18:53;99063.41;;;8.74;100.00
68948;BME280;55996;49.546;7.400;2024-02-14T11:21:20;99056.47;;;8.73;100.00
68948;BME280;55996;49.546;7.400;2024-02-14T11:23:54;99052.81;;;8.82;100.00
68948;BME280;55996;49.546;7.400;2024-02-14T11:26:20;99054.25;;;8.98;100.00
68948;BME280;55996;49.546;7.400;2024-02-14T11:28:48;99057.03;;;8.91;100.00
68948;BME280;55996;49.546;7.400;2024-02-14T11:31:16;99052.66;;;8.91;100.00
68948;BME280;55996;49.546;7.400;2024-02-14T11:33:42;99057.38;;;8.70;100.00
68948;BME280;55996;49.546;7.400;2024-02-14T11:36:11;99032.22;;;8.69;100.00
68948;BME280;55996;49.546;7.400;2024-02-14T11:38:37;99035.53;;;8.78;100.00
68948;BME280;55996;49.546;7.400;2024-02-14T11:41:02;99039.63;;;8.91;100.00
68948;BME280;55996;49.546;7.400;2024-02-14T11:43:28;99034.44;;;8.88;100.00
68948;BME280;55996;49.546;7.400;2024-02-14T11:45:54;99051.63;;;8.98;100.00
68948;BME280;55996;49.546;7.400;2024-02-14T11:48:20;99045.47;;;9.02;100.00
68948;BME280;55996;49.546;7.400;2024-02-14T11:50:46;99042.50;;;8.77;100.00
68948;BME280;55996;49.546;7.400;2024-02-14T11:53:13;99043.09;;;8.90;100.00
68948;BME280;55996;49.546;7.400;2024-02-14T11:55:41;99031.84;;;8.90;100.00
68948;BME280;55996;49.546;7.400;2024-02-14T11:58:11;99034.00;;;8.67;100.00
68948;BME280;55996;49.546;7.400;2024-02-14T12:00:42;99033.44;;;8.95;100.00
68948;BME280;55996;49.546;7.400;2024-02-14T12:03:15;99033.44;;;8.95;100.00
68948;BME280;55996;49.546;7.400;2024-02-14T12:05:41;99044.63;;;9.00;100.00
68948;BME280;55996;49.546;7.400;2024-02-14T12:08:09;99042.84;;;9.02;100.00
68948;BME280;55996;49.546;7.400;2024-02-14T12:10:36;99049.53;;;9.16;100.00
68948;BME280;55996;49.546;7.400;2024-02-14T12:13:14;99042.38;;;9.26;100.00
68948;BME280;55996;49.546;7.400;2024-02-14T12:15:40;99037.81;;;9.35;100.00
68948;BME280;55996;49.546;7.400;2024-02-14T12:18:07;99021.31;;;9.33;100.00
68948;BME280;55996;49.546;7.400;2024-02-14T12:20:33;99025.56;;;9.37;100.00
68948;BME280;55996;49.546;7.400;2024-02-14T12:22:59;99031.56;;;9.43;100.00
68948;BME280;55996;49.546;7.400;2024-02-14T12:25:25;99020.97;;;9.49;100.00
68948;BME280;55996;49.546;7.400;2024-02-14T12:27:52;99026.94;;;9.54;100.00
68948;BME280;55996;49.546;7.400;2024-02-14T12:30:18;99025.00;;;9.62;100.00
68948;BME280;55996;49.546;7.400;2024-02-14T12:32:45;99013.00;;;9.55;100.00
68948;BME280;55996;49.546;7.400;2024-02-14T12:35:11;99020.16;;;9.47;100.00
68948;BME280;55996;49.546;7.400;2024-02-14T12:37:37;99027.00;;;9.51;100.00
68948;BME280;55996;49.546;7.400;2024-02-14T12:40:03;99034.22;;;9.40;100.00
68948;BME280;55996;49.546;7.400;2024-02-14T12:42:30;99030.88;;;9.34;100.00
68948;BME280;55996;49.546;7.400;2024-02-14T12:44:57;99024.72;;;9.37;100.00
68948;BME280;55996;49.546;7.400;2024-02-14T12:47:26;99019.22;;;9.49;100.00
68948;BME280;55996;49.546;7.400;2024-02-14T12:49:56;99027.19;;;9.43;100.00
68948;BME280;55996;49.546;7.400;2024-02-14T12:52:24;99020.47;;;9.33;100.00
68948;BME280;55996;49.546;7.400;2024-02-14T12:54:50;99008.41;;;9.27;100.00